Caloundra, Australia
Current Conditions -  °F | °C
As of 8:00 PM on Friday 31 Oct 2014 (Local Time) from YBBN Reporting Station
Scattered Clouds Scattered Clouds  
Wind Chill: 75°   Ceiling: Unl
Heat Index: 75°   Visibility: 6mi
Dew Point: 66°   Wind: 22mph
Humidity: 73%   Direction: 360°N
Pressure: 29.94"   Gusts: NA
Location:  26.8°S, 153.13°E
Report Text: YBBN 311000Z 36019KT 9999 FEW015 SCT300 24/19 Q1014 NOSIG
Loading
Personal Weather Stations






























Interactive Weather Map New forecast layout! Learn more

10-Day Weather Forecast

Advertisements
Track Severe Weather on mobile